sensor_id;sensor_type;location;lat;lon;timestamp;temperature;humidity
46336;DHT22;31365;48.858;8.530;2023-08-06T00:00:31;15.20;99.90
46336;DHT22;31365;48.858;8.530;2023-08-06T00:02:59;15.10;99.90
46336;DHT22;31365;48.858;8.530;2023-08-06T00:05:28;15.10;99.90
46336;DHT22;31365;48.858;8.530;2023-08-06T00:08:00;15.00;99.90
46336;DHT22;31365;48.858;8.530;2023-08-06T00:10:33;14.90;99.90
46336;DHT22;31365;48.858;8.530;2023-08-06T00:13:01;14.90;99.90
46336;DHT22;31365;48.858;8.530;2023-08-06T00:15:30;14.90;99.90
46336;DHT22;31365;48.858;8.530;2023-08-06T00:17:58;14.90;99.90
46336;DHT22;31365;48.858;8.530;2023-08-06T00:20:27;15.00;99.90
46336;DHT22;31365;48.858;8.530;2023-08-06T00:22:57;15.10;99.90
46336;DHT22;31365;48.858;8.530;2023-08-06T00:25:25;15.20;99.90
46336;DHT22;31365;48.858;8.530;2023-08-06T00:27:53;15.20;99.90
46336;DHT22;31365;48.858;8.530;2023-08-06T00:30:23;15.20;99.90
46336;DHT22;31365;48.858;8.530;2023-08-06T00:32:51;15.20;99.90
46336;DHT22;31365;48.858;8.530;2023-08-06T00:35:19;15.20;99.90
46336;DHT22;31365;48.858;8.530;2023-08-06T00:38:10;15.10;99.90
46336;DHT22;31365;48.858;8.530;2023-08-06T00:40:39;15.10;99.90
46336;DHT22;31365;48.858;8.530;2023-08-06T00:43:07;15.00;99.90
46336;DHT22;31365;48.858;8.530;2023-08-06T00:45:36;14.90;99.90
46336;DHT22;31365;48.858;8.530;2023-08-06T00:48:05;14.90;99.90
46336;DHT22;31365;48.858;8.530;2023-08-06T00:50:34;14.90;99.90
46336;DHT22;31365;48.858;8.530;2023-08-06T00:53:02;14.90;99.90
46336;DHT22;31365;48.858;8.530;2023-08-06T00:55:33;14.80;99.90
46336;DHT22;31365;48.858;8.530;2023-08-06T00:58:01;14.90;99.90
46336;DHT22;31365;48.858;8.530;2023-08-06T01:00:30;14.90;99.90
46336;DHT22;31365;48.858;8.530;2023-08-06T01:03:01;15.00;99.90
46336;DHT22;31365;48.858;8.530;2023-08-06T01:05:30;15.10;99.90
46336;DHT22;31365;48.858;8.530;2023-08-06T01:08:09;15.10;99.90
46336;DHT22;31365;48.858;8.530;2023-08-06T01:11:17;15.20;99.90
46336;DHT22;31365;48.858;8.530;2023-08-06T01:13:59;15.30;99.90
46336;DHT22;31365;48.858;8.530;2023-08-06T01:16:37;15.40;99.90
46336;DHT22;31365;48.858;8.530;2023-08-06T01:19:16;15.40;99.90
46336;DHT22;31365;48.858;8.530;2023-08-06T01:21:47;15.50;99.90
46336;DHT22;31365;48.858;8.530;2023-08-06T01:24:16;15.60;99.90
46336;DHT22;31365;48.858;8.530;2023-08-06T01:26:48;15.60;99.90
46336;DHT22;31365;48.858;8.530;2023-08-06T01:29:34;15.60;99.90
46336;DHT22;31365;48.858;8.530;2023-08-06T01:32:08;15.60;99.90
46336;DHT22;31365;48.858;8.530;2023-08-06T01:34:44;15.70;99.90
46336;DHT22;31365;48.858;8.530;2023-08-06T01:37:15;15.70;99.90
46336;DHT22;31365;48.858;8.530;2023-08-06T01:39:44;15.80;99.90
46336;DHT22;31365;48.858;8.530;2023-08-06T01:42:12;15.80;99.90
46336;DHT22;31365;48.858;8.530;2023-08-06T01:44:41;15.80;99.90
46336;DHT22;31365;48.858;8.530;2023-08-06T01:47:09;15.80;99.90
46336;DHT22;31365;48.858;8.530;2023-08-06T01:49:38;15.80;99.90
46336;DHT22;31365;48.858;8.530;2023-08-06T01:52:07;15.90;99.90
46336;DHT22;31365;48.858;8.530;2023-08-06T01:54:36;15.90;99.90
46336;DHT22;31365;48.858;8.530;2023-08-06T01:57:05;15.90;99.90
46336;DHT22;31365;48.858;8.530;2023-08-06T01:59:34;15.90;99.90
46336;DHT22;31365;48.858;8.530;2023-08-06T02:02:02;16.00;99.90
46336;DHT22;31365;48.858;8.530;2023-08-06T02:04:30;16.00;99.90
46336;DHT22;31365;48.858;8.530;2023-08-06T02:06:59;16.10;99.90
46336;DHT22;31365;48.858;8.530;2023-08-06T02:09:27;16.10;99.90
46336;DHT22;31365;48.858;8.530;2023-08-06T02:11:57;16.10;99.90
46336;DHT22;31365;48.858;8.530;2023-08-06T02:14:27;16.10;99.90
46336;DHT22;31365;48.858;8.530;2023-08-06T02:16:56;16.10;99.90
46336;DHT22;31365;48.858;8.530;2023-08-06T02:19:25;16.20;99.90
46336;DHT22;31365;48.858;8.530;2023-08-06T02:21:53;16.20;99.90
46336;DHT22;31365;48.858;8.530;2023-08-06T02:24:22;16.10;99.90
46336;DHT22;31365;48.858;8.530;2023-08-06T02:26:50;16.10;99.90
46336;DHT22;31365;48.858;8.530;2023-08-06T02:29:24;16.20;99.90
46336;DHT22;31365;48.858;8.530;2023-08-06T02:31:52;16.10;99.90
46336;DHT22;31365;48.858;8.530;2023-08-06T02:34:21;16.00;99.90
46336;DHT22;31365;48.858;8.530;2023-08-06T02:36:51;16.00;99.90
46336;DHT22;31365;48.858;8.530;2023-08-06T02:39:19;16.00;99.90
46336;DHT22;31365;48.858;8.530;2023-08-06T02:41:48;16.00;99.90
46336;DHT22;31365;48.858;8.530;2023-08-06T02:44:17;15.90;99.90
46336;DHT22;31365;48.858;8.530;2023-08-06T02:46:47;15.90;99.90
46336;DHT22;31365;48.858;8.530;2023-08-06T02:49:15;15.80;99.90
46336;DHT22;31365;48.858;8.530;2023-08-06T02:51:45;15.90;99.90
46336;DHT22;31365;48.858;8.530;2023-08-06T02:54:14;15.80;99.90
46336;DHT22;31365;48.858;8.530;2023-08-06T02:56:43;15.80;99.90
46336;DHT22;31365;48.858;8.530;2023-08-06T02:59:19;15.80;99.90
46336;DHT22;31365;48.858;8.530;2023-08-06T03:01:57;15.60;99.90
46336;DHT22;31365;48.858;8.530;2023-08-06T03:04:34;15.60;99.90
46336;DHT22;31365;48.858;8.530;2023-08-06T03:07:03;15.50;99.90
46336;DHT22;31365;48.858;8.530;2023-08-06T03:09:40;15.40;99.90
46336;DHT22;31365;48.858;8.530;2023-08-06T03:12:08;15.30;99.90
46336;DHT22;31365;48.858;8.530;2023-08-06T03:14:38;15.30;99.90
46336;DHT22;31365;48.858;8.530;2023-08-06T03:17:08;15.20;99.90
46336;DHT22;31365;48.858;8.530;2023-08-06T03:19:37;15.10;99.90
46336;DHT22;31365;48.858;8.530;2023-08-06T03:22:06;15.00;99.90
46336;DHT22;31365;48.858;8.530;2023-08-06T03:24:35;15.00;99.90
46336;DHT22;31365;48.858;8.530;2023-08-06T03:27:05;14.90;99.90
46336;DHT22;31365;48.858;8.530;2023-08-06T03:29:35;14.80;99.90
46336;DHT22;31365;48.858;8.530;2023-08-06T03:32:03;14.70;99.90
46336;DHT22;31365;48.858;8.530;2023-08-06T03:34:34;14.60;99.90
46336;DHT22;31365;48.858;8.530;2023-08-06T03:37:02;14.60;99.90
46336;DHT22;31365;48.858;8.530;2023-08-06T03:39:32;14.60;99.90
46336;DHT22;31365;48.858;8.530;2023-08-06T03:42:01;14.50;99.90
46336;DHT22;31365;48.858;8.530;2023-08-06T03:44:29;14.50;99.90
46336;DHT22;31365;48.858;8.530;2023-08-06T03:46:58;14.40;99.90
46336;DHT22;31365;48.858;8.530;2023-08-06T03:49:26;14.50;99.90
46336;DHT22;31365;48.858;8.530;2023-08-06T03:51:56;14.50;99.90
46336;DHT22;31365;48.858;8.530;2023-08-06T03:54:24;14.50;99.90
46336;DHT22;31365;48.858;8.530;2023-08-06T03:56:53;14.50;99.90
46336;DHT22;31365;48.858;8.530;2023-08-06T03:59:21;14.50;99.90
46336;DHT22;31365;48.858;8.530;2023-08-06T04:01:50;14.50;99.90
46336;DHT22;31365;48.858;8.530;2023-08-06T04:04:19;14.50;99.90
46336;DHT22;31365;48.858;8.530;2023-08-06T04:06:47;14.50;99.90
46336;DHT22;31365;48.858;8.530;2023-08-06T04:09:17;14.60;99.90
46336;DHT22;31365;48.858;8.530;2023-08-06T04:11:46;14.60;99.90
46336;DHT22;31365;48.858;8.530;2023-08-06T04:14:14;14.60;99.90
46336;DHT22;31365;48.858;8.530;2023-08-06T04:16:43;14.60;99.90
46336;DHT22;31365;48.858;8.530;2023-08-06T04:19:12;14.50;99.90
46336;DHT22;31365;48.858;8.530;2023-08-06T04:21:41;14.50;99.90
46336;DHT22;31365;48.858;8.530;2023-08-06T04:24:10;14.50;99.90
46336;DHT22;31365;48.858;8.530;2023-08-06T04:26:40;14.50;99.90
46336;DHT22;31365;48.858;8.530;2023-08-06T04:29:10;14.60;99.90
46336;DHT22;31365;48.858;8.530;2023-08-06T04:31:38;14.60;99.90
46336;DHT22;31365;48.858;8.530;2023-08-06T04:34:07;14.60;99.90
46336;DHT22;31365;48.858;8.530;2023-08-06T04:36:37;14.60;99.90
46336;DHT22;31365;48.858;8.530;2023-08-06T04:39:08;14.60;99.90
46336;DHT22;31365;48.858;8.530;2023-08-06T04:41:36;14.70;99.90
46336;DHT22;31365;48.858;8.530;2023-08-06T04:44:10;14.60;99.90
46336;DHT22;31365;48.858;8.530;2023-08-06T04:46:38;14.60;99.90
46336;DHT22;31365;48.858;8.530;2023-08-06T04:49:07;14.60;99.90
46336;DHT22;31365;48.858;8.530;2023-08-06T04:51:35;14.60;99.90
46336;DHT22;31365;48.858;8.530;2023-08-06T04:54:04;14.50;99.90
46336;DHT22;31365;48.858;8.530;2023-08-06T04:56:32;14.50;99.90
46336;DHT22;31365;48.858;8.530;2023-08-06T04:59:00;14.50;99.90
46336;DHT22;31365;48.858;8.530;2023-08-06T05:01:30;14.50;99.90
46336;DHT22;31365;48.858;8.530;2023-08-06T05:03:59;14.50;99.90
46336;DHT22;31365;48.858;8.530;2023-08-06T05:06:27;14.50;99.90
46336;DHT22;31365;48.858;8.530;2023-08-06T05:08:56;14.50;99.90
46336;DHT22;31365;48.858;8.530;2023-08-06T05:11:24;14.50;99.90
46336;DHT22;31365;48.858;8.530;2023-08-06T05:13:53;14.60;99.90
46336;DHT22;31365;48.858;8.530;2023-08-06T05:16:21;14.60;99.90
46336;DHT22;31365;48.858;8.530;2023-08-06T05:18:51;14.60;99.90
46336;DHT22;31365;48.858;8.530;2023-08-06T05:21:19;14.60;99.90
46336;DHT22;31365;48.858;8.530;2023-08-06T05:23:47;14.70;99.90
46336;DHT22;31365;48.858;8.530;2023-08-06T05:26:15;14.70;99.90
46336;DHT22;31365;48.858;8.530;2023-08-06T05:28:46;14.60;99.90
46336;DHT22;31365;48.858;8.530;2023-08-06T05:31:15;14.60;99.90
46336;DHT22;31365;48.858;8.530;2023-08-06T05:33:43;14.60;99.90
46336;DHT22;31365;48.858;8.530;2023-08-06T05:36:13;14.60;99.90
46336;DHT22;31365;48.858;8.530;2023-08-06T05:38:41;14.60;99.90
46336;DHT22;31365;48.858;8.530;2023-08-06T05:41:09;14.80;99.90
46336;DHT22;31365;48.858;8.530;2023-08-06T05:43:38;14.70;99.90
46336;DHT22;31365;48.858;8.530;2023-08-06T05:46:06;14.70;99.90
46336;DHT22;31365;48.858;8.530;2023-08-06T05:48:34;14.60;99.90
46336;DHT22;31365;48.858;8.530;2023-08-06T05:51:03;14.60;99.90
46336;DHT22;31365;48.858;8.530;2023-08-06T05:53:32;14.60;99.90
46336;DHT22;31365;48.858;8.530;2023-08-06T05:56:00;14.60;99.90
46336;DHT22;31365;48.858;8.530;2023-08-06T05:58:28;14.60;99.90
46336;DHT22;31365;48.858;8.530;2023-08-06T06:00:57;14.50;99.90
46336;DHT22;31365;48.858;8.530;2023-08-06T06:03:26;14.40;99.90
46336;DHT22;31365;48.858;8.530;2023-08-06T06:05:55;14.40;99.90
46336;DHT22;31365;48.858;8.530;2023-08-06T06:08:23;14.50;99.90
46336;DHT22;31365;48.858;8.530;2023-08-06T06:10:52;14.50;99.90
46336;DHT22;31365;48.858;8.530;2023-08-06T06:13:21;14.60;99.90
46336;DHT22;31365;48.858;8.530;2023-08-06T06:15:49;14.60;99.90
46336;DHT22;31365;48.858;8.530;2023-08-06T06:18:17;14.60;99.90
46336;DHT22;31365;48.858;8.530;2023-08-06T06:20:46;14.60;99.90
46336;DHT22;31365;48.858;8.530;2023-08-06T06:23:14;14.50;99.90
46336;DHT22;31365;48.858;8.530;2023-08-06T06:25:43;14.50;99.90
46336;DHT22;31365;48.858;8.530;2023-08-06T06:28:12;14.50;99.90
46336;DHT22;31365;48.858;8.530;2023-08-06T06:30:42;14.50;99.90
46336;DHT22;31365;48.858;8.530;2023-08-06T06:33:11;14.50;99.90
46336;DHT22;31365;48.858;8.530;2023-08-06T06:35:39;14.60;99.90
46336;DHT22;31365;48.858;8.530;2023-08-06T06:38:07;14.50;99.90
46336;DHT22;31365;48.858;8.530;2023-08-06T06:40:35;14.40;99.90
46336;DHT22;31365;48.858;8.530;2023-08-06T06:43:04;14.40;99.90
46336;DHT22;31365;48.858;8.530;2023-08-06T06:45:34;14.50;99.90
46336;DHT22;31365;48.858;8.530;2023-08-06T06:48:02;14.50;99.90
46336;DHT22;31365;48.858;8.530;2023-08-06T06:50:31;14.50;99.90
46336;DHT22;31365;48.858;8.530;2023-08-06T06:52:59;14.50;99.90
46336;DHT22;31365;48.858;8.530;2023-08-06T06:55:27;14.40;99.90
46336;DHT22;31365;48.858;8.530;2023-08-06T06:57:56;14.50;99.90
46336;DHT22;31365;48.858;8.530;2023-08-06T07:00:24;14.40;99.90
46336;DHT22;31365;48.858;8.530;2023-08-06T07:02:54;14.50;99.90
46336;DHT22;31365;48.858;8.530;2023-08-06T07:05:22;14.50;99.90
46336;DHT22;31365;48.858;8.530;2023-08-06T07:07:52;14.50;99.90
46336;DHT22;31365;48.858;8.530;2023-08-06T07:10:20;14.50;99.90
46336;DHT22;31365;48.858;8.530;2023-08-06T07:12:49;14.50;99.90
46336;DHT22;31365;48.858;8.530;2023-08-06T07:15:16;14.60;99.90
46336;DHT22;31365;48.858;8.530;2023-08-06T07:17:45;14.60;99.90
46336;DHT22;31365;48.858;8.530;2023-08-06T07:20:14;14.60;99.90
46336;DHT22;31365;48.858;8.530;2023-08-06T07:22:43;14.60;99.90
46336;DHT22;31365;48.858;8.530;2023-08-06T07:25:11;14.70;99.90
46336;DHT22;31365;48.858;8.530;2023-08-06T07:27:40;14.80;99.90
46336;DHT22;31365;48.858;8.530;2023-08-06T07:30:08;14.80;99.90
46336;DHT22;31365;48.858;8.530;2023-08-06T07:32:38;14.90;99.90
46336;DHT22;31365;48.858;8.530;2023-08-06T07:35:06;15.10;99.90
46336;DHT22;31365;48.858;8.530;2023-08-06T07:37:40;15.10;99.90
46336;DHT22;31365;48.858;8.530;2023-08-06T07:40:09;15.20;99.90
46336;DHT22;31365;48.858;8.530;2023-08-06T07:42:39;15.30;99.90
46336;DHT22;31365;48.858;8.530;2023-08-06T07:45:08;15.30;99.90
46336;DHT22;31365;48.858;8.530;2023-08-06T07:47:37;15.40;99.90
46336;DHT22;31365;48.858;8.530;2023-08-06T07:50:06;15.50;99.90
46336;DHT22;31365;48.858;8.530;2023-08-06T07:52:35;15.40;99.90
46336;DHT22;31365;48.858;8.530;2023-08-06T07:55:05;15.30;99.90
46336;DHT22;31365;48.858;8.530;2023-08-06T07:57:34;15.40;99.90
46336;DHT22;31365;48.858;8.530;2023-08-06T08:00:04;15.40;99.90
46336;DHT22;31365;48.858;8.530;2023-08-06T08:02:38;15.50;99.90
46336;DHT22;31365;48.858;8.530;2023-08-06T08:05:07;15.60;99.90
46336;DHT22;31365;48.858;8.530;2023-08-06T08:07:35;15.50;99.90
46336;DHT22;31365;48.858;8.530;2023-08-06T08:10:06;15.50;99.90
46336;DHT22;31365;48.858;8.530;2023-08-06T08:12:35;15.60;99.90
46336;DHT22;31365;48.858;8.530;2023-08-06T08:15:04;15.70;99.90
46336;DHT22;31365;48.858;8.530;2023-08-06T08:17:32;15.60;99.90
46336;DHT22;31365;48.858;8.530;2023-08-06T08:20:01;15.40;99.90
46336;DHT22;31365;48.858;8.530;2023-08-06T08:22:30;15.30;99.90
46336;DHT22;31365;48.858;8.530;2023-08-06T08:24:58;15.20;99.90
46336;DHT22;31365;48.858;8.530;2023-08-06T08:27:28;15.20;99.90
46336;DHT22;31365;48.858;8.530;2023-08-06T08:29:56;15.30;99.90
46336;DHT22;31365;48.858;8.530;2023-08-06T08:32:24;15.50;99.90
46336;DHT22;31365;48.858;8.530;2023-08-06T08:34:53;15.60;99.90
46336;DHT22;31365;48.858;8.530;2023-08-06T08:37:23;15.70;99.90
46336;DHT22;31365;48.858;8.530;2023-08-06T08:39:51;15.80;99.90
46336;DHT22;31365;48.858;8.530;2023-08-06T08:42:20;15.80;99.90
46336;DHT22;31365;48.858;8.530;2023-08-06T08:44:50;15.80;99.90
46336;DHT22;31365;48.858;8.530;2023-08-06T08:47:20;15.70;99.90
46336;DHT22;31365;48.858;8.530;2023-08-06T08:49:49;15.50;99.90
46336;DHT22;31365;48.858;8.530;2023-08-06T08:52:20;15.50;99.90
46336;DHT22;31365;48.858;8.530;2023-08-06T08:54:49;15.50;99.90
46336;DHT22;31365;48.858;8.530;2023-08-06T08:57:20;15.50;99.90
46336;DHT22;31365;48.858;8.530;2023-08-06T08:59:50;15.50;99.90
46336;DHT22;31365;48.858;8.530;2023-08-06T09:02:19;15.50;99.90
46336;DHT22;31365;48.858;8.530;2023-08-06T09:04:49;15.40;99.90
46336;DHT22;31365;48.858;8.530;2023-08-06T09:07:20;15.30;99.90
46336;DHT22;31365;48.858;8.530;2023-08-06T09:09:50;15.20;99.90
46336;DHT22;31365;48.858;8.530;2023-08-06T09:12:22;15.30;99.90
46336;DHT22;31365;48.858;8.530;2023-08-06T09:14:51;15.20;99.90
46336;DHT22;31365;48.858;8.530;2023-08-06T09:17:20;15.20;99.90
46336;DHT22;31365;48.858;8.530;2023-08-06T09:19:48;15.20;99.90
46336;DHT22;31365;48.858;8.530;2023-08-06T09:22:17;15.00;99.90
46336;DHT22;31365;48.858;8.530;2023-08-06T09:24:45;15.00;99.90
46336;DHT22;31365;48.858;8.530;2023-08-06T09:27:14;15.10;99.90
46336;DHT22;31365;48.858;8.530;2023-08-06T09:29:43;15.10;99.90
46336;DHT22;31365;48.858;8.530;2023-08-06T09:32:13;15.20;99.90
46336;DHT22;31365;48.858;8.530;2023-08-06T09:34:42;15.30;99.90
46336;DHT22;31365;48.858;8.530;2023-08-06T09:37:11;15.40;99.90
46336;DHT22;31365;48.858;8.530;2023-08-06T09:39:40;15.50;99.90
46336;DHT22;31365;48.858;8.530;2023-08-06T09:42:09;15.60;99.90
46336;DHT22;31365;48.858;8.530;2023-08-06T09:44:41;15.60;99.90
46336;DHT22;31365;48.858;8.530;2023-08-06T09:47:09;15.50;99.90
46336;DHT22;31365;48.858;8.530;2023-08-06T09:49:42;15.30;99.90
46336;DHT22;31365;48.858;8.530;2023-08-06T09:52:13;15.20;99.90
46336;DHT22;31365;48.858;8.530;2023-08-06T09:54:43;15.20;99.90
46336;DHT22;31365;48.858;8.530;2023-08-06T09:57:12;15.20;99.90
46336;DHT22;31365;48.858;8.530;2023-08-06T09:59:42;15.20;99.90
46336;DHT22;31365;48.858;8.530;2023-08-06T10:02:13;15.20;99.90
46336;DHT22;31365;48.858;8.530;2023-08-06T10:04:44;15.20;99.90
46336;DHT22;31365;48.858;8.530;2023-08-06T10:07:21;15.30;99.90
46336;DHT22;31365;48.858;8.530;2023-08-06T10:09:51;15.30;99.90
46336;DHT22;31365;48.858;8.530;2023-08-06T10:12:20;15.20;99.90
46336;DHT22;31365;48.858;8.530;2023-08-06T10:14:50;15.10;99.90
46336;DHT22;31365;48.858;8.530;2023-08-06T10:17:21;14.90;99.90
46336;DHT22;31365;48.858;8.530;2023-08-06T10:20:05;14.80;99.90
46336;DHT22;31365;48.858;8.530;2023-08-06T10:22:35;14.70;99.90
46336;DHT22;31365;48.858;8.530;2023-08-06T10:25:04;14.60;99.90
46336;DHT22;31365;48.858;8.530;2023-08-06T10:27:34;14.40;99.90
46336;DHT22;31365;48.858;8.530;2023-08-06T10:30:22;14.40;99.90
46336;DHT22;31365;48.858;8.530;2023-08-06T10:32:54;14.50;99.90
46336;DHT22;31365;48.858;8.530;2023-08-06T10:35:30;14.50;99.90
46336;DHT22;31365;48.858;8.530;2023-08-06T10:38:05;14.50;99.90
46336;DHT22;31365;48.858;8.530;2023-08-06T10:40:36;14.30;99.90
46336;DHT22;31365;48.858;8.530;2023-08-06T10:43:07;14.30;99.90
46336;DHT22;31365;48.858;8.530;2023-08-06T10:45:52;14.20;99.90
46336;DHT22;31365;48.858;8.530;2023-08-06T10:48:29;14.30;99.90
46336;DHT22;31365;48.858;8.530;2023-08-06T10:51:00;14.30;99.90
46336;DHT22;31365;48.858;8.530;2023-08-06T10:53:29;14.40;99.90
46336;DHT22;31365;48.858;8.530;2023-08-06T10:56:00;14.50;99.90
46336;DHT22;31365;48.858;8.530;2023-08-06T10:58:32;14.50;99.90
46336;DHT22;31365;48.858;8.530;2023-08-06T11:01:01;14.50;99.90
46336;DHT22;31365;48.858;8.530;2023-08-06T11:03:29;14.30;99.90
46336;DHT22;31365;48.858;8.530;2023-08-06T11:06:00;14.20;99.90
46336;DHT22;31365;48.858;8.530;2023-08-06T11:08:33;14.10;99.90
46336;DHT22;31365;48.858;8.530;2023-08-06T11:11:09;14.10;99.90
46336;DHT22;31365;48.858;8.530;2023-08-06T11:13:40;14.10;99.90
46336;DHT22;31365;48.858;8.530;2023-08-06T11:16:08;14.10;99.90
46336;DHT22;31365;48.858;8.530;2023-08-06T11:18:37;14.10;99.90
46336;DHT22;31365;48.858;8.530;2023-08-06T11:21:07;14.00;99.90
46336;DHT22;31365;48.858;8.530;2023-08-06T11:23:35;13.90;99.90
46336;DHT22;31365;48.858;8.530;2023-08-06T11:26:04;13.80;99.90
46336;DHT22;31365;48.858;8.530;2023-08-06T11:28:32;13.80;99.90
46336;DHT22;31365;48.858;8.530;2023-08-06T11:31:00;13.70;99.90
46336;DHT22;31365;48.858;8.530;2023-08-06T11:33:30;13.70;99.90
46336;DHT22;31365;48.858;8.530;2023-08-06T11:35:59;13.70;99.90
46336;DHT22;31365;48.858;8.530;2023-08-06T11:38:30;13.70;99.90
46336;DHT22;31365;48.858;8.530;2023-08-06T11:40:59;13.80;99.90
46336;DHT22;31365;48.858;8.530;2023-08-06T11:43:30;13.80;99.90
46336;DHT22;31365;48.858;8.530;2023-08-06T11:45:59;13.70;99.90
46336;DHT22;31365;48.858;8.530;2023-08-06T11:48:27;13.90;99.90
46336;DHT22;31365;48.858;8.530;2023-08-06T11:50:56;13.90;99.90
46336;DHT22;31365;48.858;8.530;2023-08-06T11:53:27;14.10;99.90
46336;DHT22;31365;48.858;8.530;2023-08-06T11:55:58;14.20;99.90
46336;DHT22;31365;48.858;8.530;2023-08-06T11:58:26;14.20;99.90
46336;DHT22;31365;48.858;8.530;2023-08-06T12:00:54;14.30;99.90
46336;DHT22;31365;48.858;8.530;2023-08-06T12:03:24;14.30;99.90
46336;DHT22;31365;48.858;8.530;2023-08-06T12:05:54;14.30;99.90
46336;DHT22;31365;48.858;8.530;2023-08-06T12:08:26;14.40;99.90
46336;DHT22;31365;48.858;8.530;2023-08-06T12:10:54;14.50;99.90
46336;DHT22;31365;48.858;8.530;2023-08-06T12:13:24;14.50;99.90
46336;DHT22;31365;48.858;8.530;2023-08-06T12:15:54;14.60;99.90
46336;DHT22;31365;48.858;8.530;2023-08-06T12:18:24;14.70;99.90
46336;DHT22;31365;48.858;8.530;2023-08-06T12:20:52;14.80;99.90
46336;DHT22;31365;48.858;8.530;2023-08-06T12:23:21;15.10;99.90
46336;DHT22;31365;48.858;8.530;2023-08-06T12:25:49;15.40;99.90
46336;DHT22;31365;48.858;8.530;2023-08-06T12:28:17;15.50;99.90
46336;DHT22;31365;48.858;8.530;2023-08-06T12:30:49;15.70;99.90
46336;DHT22;31365;48.858;8.530;2023-08-06T12:33:21;16.00;99.90
46336;DHT22;31365;48.858;8.530;2023-08-06T12:35:50;16.20;99.90
46336;DHT22;31365;48.858;8.530;2023-08-06T12:38:20;16.10;99.90
46336;DHT22;31365;48.858;8.530;2023-08-06T12:40:48;16.10;99.90
46336;DHT22;31365;48.858;8.530;2023-08-06T12:43:16;16.00;99.90
46336;DHT22;31365;48.858;8.530;2023-08-06T12:45:45;15.70;99.90
46336;DHT22;31365;48.858;8.530;2023-08-06T12:48:17;15.60;99.90
46336;DHT22;31365;48.858;8.530;2023-08-06T12:50:46;15.80;99.90
46336;DHT22;31365;48.858;8.530;2023-08-06T12:53:16;15.80;99.90
46336;DHT22;31365;48.858;8.530;2023-08-06T12:55:44;15.80;99.90
46336;DHT22;31365;48.858;8.530;2023-08-06T12:58:13;15.80;99.90
46336;DHT22;31365;48.858;8.530;2023-08-06T13:00:41;15.70;99.90
46336;DHT22;31365;48.858;8.530;2023-08-06T13:03:09;15.70;99.90
46336;DHT22;31365;48.858;8.530;2023-08-06T13:05:38;15.60;99.90
46336;DHT22;31365;48.858;8.530;2023-08-06T13:08:07;15.60;99.90
46336;DHT22;31365;48.858;8.530;2023-08-06T13:10:35;15.60;99.90
46336;DHT22;31365;48.858;8.530;2023-08-06T13:13:04;15.80;99.90
46336;DHT22;31365;48.858;8.530;2023-08-06T13:15:32;15.80;99.90
46336;DHT22;31365;48.858;8.530;2023-08-06T13:18:00;15.80;99.90
46336;DHT22;31365;48.858;8.530;2023-08-06T13:20:30;15.80;99.90
46336;DHT22;31365;48.858;8.530;2023-08-06T13:23:00;15.80;99.90
46336;DHT22;31365;48.858;8.530;2023-08-06T13:25:28;15.80;99.90
46336;DHT22;31365;48.858;8.530;2023-08-06T13:27:57;15.80;99.90
46336;DHT22;31365;48.858;8.530;2023-08-06T13:30:26;15.80;99.90
46336;DHT22;31365;48.858;8.530;2023-08-06T13:32:54;15.70;99.90
46336;DHT22;31365;48.858;8.530;2023-08-06T13:35:23;15.50;99.90
46336;DHT22;31365;48.858;8.530;2023-08-06T13:37:51;15.40;99.90
46336;DHT22;31365;48.858;8.530;2023-08-06T13:40:22;15.50;99.90
46336;DHT22;31365;48.858;8.530;2023-08-06T13:42:50;15.70;99.90
46336;DHT22;31365;48.858;8.530;2023-08-06T13:45:18;15.90;99.90
46336;DHT22;31365;48.858;8.530;2023-08-06T13:47:47;16.20;99.90
46336;DHT22;31365;48.858;8.530;2023-08-06T13:50:15;16.70;99.90
46336;DHT22;31365;48.858;8.530;2023-08-06T13:52:44;16.90;99.90
46336;DHT22;31365;48.858;8.530;2023-08-06T13:55:12;17.00;99.90
46336;DHT22;31365;48.858;8.530;2023-08-06T13:57:42;16.80;99.90
46336;DHT22;31365;48.858;8.530;2023-08-06T14:00:11;16.90;99.90
46336;DHT22;31365;48.858;8.530;2023-08-06T14:02:41;17.00;99.90
46336;DHT22;31365;48.858;8.530;2023-08-06T14:05:12;17.30;99.90
46336;DHT22;31365;48.858;8.530;2023-08-06T14:07:40;17.30;99.90
46336;DHT22;31365;48.858;8.530;2023-08-06T14:10:08;17.00;99.90
46336;DHT22;31365;48.858;8.530;2023-08-06T14:12:37;16.80;99.90
46336;DHT22;31365;48.858;8.530;2023-08-06T14:15:07;16.60;99.90
46336;DHT22;31365;48.858;8.530;2023-08-06T14:17:36;16.40;99.90
46336;DHT22;31365;48.858;8.530;2023-08-06T14:20:06;16.40;99.90
46336;DHT22;31365;48.858;8.530;2023-08-06T14:22:38;16.40;99.90
46336;DHT22;31365;48.858;8.530;2023-08-06T14:25:07;16.20;99.90
46336;DHT22;31365;48.858;8.530;2023-08-06T14:27:35;15.90;99.90
46336;DHT22;31365;48.858;8.530;2023-08-06T14:30:07;16.00;99.90
46336;DHT22;31365;48.858;8.530;2023-08-06T14:32:36;16.10;99.90
46336;DHT22;31365;48.858;8.530;2023-08-06T14:35:05;16.20;99.90
46336;DHT22;31365;48.858;8.530;2023-08-06T14:37:33;16.40;99.90
46336;DHT22;31365;48.858;8.530;2023-08-06T14:40:02;16.90;99.90
46336;DHT22;31365;48.858;8.530;2023-08-06T14:42:31;17.40;99.90
46336;DHT22;31365;48.858;8.530;2023-08-06T14:44:59;18.30;99.90
46336;DHT22;31365;48.858;8.530;2023-08-06T14:47:29;18.70;99.90
46336;DHT22;31365;48.858;8.530;2023-08-06T14:49:57;18.90;99.90
46336;DHT22;31365;48.858;8.530;2023-08-06T14:52:26;18.60;99.90
46336;DHT22;31365;48.858;8.530;2023-08-06T14:54:54;18.40;99.90
46336;DHT22;31365;48.858;8.530;2023-08-06T14:57:22;18.10;99.90
46336;DHT22;31365;48.858;8.530;2023-08-06T14:59:54;17.80;99.90
46336;DHT22;31365;48.858;8.530;2023-08-06T15:02:22;17.50;99.90
46336;DHT22;31365;48.858;8.530;2023-08-06T15:04:52;17.30;99.90
46336;DHT22;31365;48.858;8.530;2023-08-06T15:07:20;17.20;99.90
46336;DHT22;31365;48.858;8.530;2023-08-06T15:09:49;17.10;99.90
46336;DHT22;31365;48.858;8.530;2023-08-06T15:12:37;16.80;99.90
46336;DHT22;31365;48.858;8.530;2023-08-06T15:15:07;16.70;99.90
46336;DHT22;31365;48.858;8.530;2023-08-06T15:17:36;16.50;99.90
46336;DHT22;31365;48.858;8.530;2023-08-06T15:20:07;16.30;99.90
46336;DHT22;31365;48.858;8.530;2023-08-06T15:22:36;16.20;99.90
46336;DHT22;31365;48.858;8.530;2023-08-06T15:25:05;16.00;99.90
46336;DHT22;31365;48.858;8.530;2023-08-06T15:27:33;16.00;99.90
46336;DHT22;31365;48.858;8.530;2023-08-06T15:30:02;15.90;99.90
46336;DHT22;31365;48.858;8.530;2023-08-06T15:32:31;15.80;99.90
46336;DHT22;31365;48.858;8.530;2023-08-06T15:34:59;15.70;99.90
46336;DHT22;31365;48.858;8.530;2023-08-06T15:37:28;15.60;99.90
46336;DHT22;31365;48.858;8.530;2023-08-06T15:39:57;15.50;99.90
46336;DHT22;31365;48.858;8.530;2023-08-06T15:42:25;15.50;99.90
46336;DHT22;31365;48.858;8.530;2023-08-06T15:44:54;15.50;99.90